createdAt,value
2019-02-14T00:02:08.304Z,49.70
2019-02-14T00:04:40.601Z,49.80
2019-02-14T00:07:13.267Z,49.70
2019-02-14T00:09:45.583Z,49.80
2019-02-14T00:12:17.795Z,49.70
2019-02-14T00:14:50.081Z,49.70
2019-02-14T00:17:22.434Z,49.80
2019-02-14T00:19:54.675Z,49.80
2019-02-14T00:22:26.893Z,49.80
2019-02-14T00:24:59.095Z,49.70
2019-02-14T00:27:31.500Z,49.90
2019-02-14T00:30:04.823Z,49.90
2019-02-14T00:32:38.515Z,50.60
2019-02-14T00:35:11.211Z,49.90
2019-02-14T00:37:43.415Z,49.90
2019-02-14T00:40:16.216Z,49.90
2019-02-14T00:42:49.399Z,50.00
2019-02-14T00:45:21.600Z,50.00
2019-02-14T00:47:54.141Z,50.00
2019-02-14T00:50:26.442Z,50.00
2019-02-14T00:52:58.618Z,50.00
2019-02-14T00:55:30.879Z,50.00
2019-02-14T00:58:04.077Z,50.00
2019-02-14T01:00:36.416Z,50.10
2019-02-14T01:03:08.608Z,50.10
2019-02-14T01:05:40.849Z,50.10
2019-02-14T01:08:13.765Z,50.10
2019-02-14T01:10:46.931Z,50.10
2019-02-14T01:13:20.096Z,50.10
2019-02-14T01:15:52.493Z,50.20
2019-02-14T01:18:24.865Z,50.10
2019-02-14T01:20:57.053Z,50.20
2019-02-14T01:23:29.210Z,50.20
2019-02-14T01:26:04.111Z,50.10
2019-02-14T01:28:38.237Z,50.10
2019-02-14T01:31:10.632Z,50.20
2019-02-14T01:33:42.930Z,50.20
2019-02-14T01:36:15.852Z,50.20
2019-02-14T01:38:50.856Z,50.20
2019-02-14T01:41:23.410Z,50.20
2019-02-14T01:43:55.745Z,50.20
2019-02-14T01:46:28.082Z,50.20
2019-02-14T01:49:04.783Z,50.20
2019-02-14T01:51:39.089Z,50.20
2019-02-14T01:54:11.306Z,50.20
2019-02-14T01:56:45.977Z,50.20
2019-02-14T01:59:18.187Z,50.20
2019-02-14T02:01:52.747Z,50.20
2019-02-14T02:04:25.087Z,50.20
2019-02-14T02:06:57.492Z,50.20
2019-02-14T02:12:21.493Z,50.30
2019-02-14T02:14:55.958Z,50.30
2019-02-14T02:17:34.691Z,50.30
2019-02-14T02:20:14.723Z,49.70
2019-02-14T02:22:49.497Z,51.00
2019-02-14T02:25:21.868Z,51.10
2019-02-14T02:27:56.653Z,50.50
2019-02-14T02:30:28.985Z,50.30
2019-02-14T02:33:05.989Z,51.50
2019-02-14T02:35:45.683Z,49.80
2019-02-14T02:41:10.476Z,46.90
2019-02-14T02:43:48.897Z,45.90
2019-02-14T02:46:21.155Z,45.10
2019-02-14T02:48:57.689Z,44.30
2019-02-14T02:51:29.987Z,43.60
2019-02-14T02:54:02.384Z,43.00
2019-02-14T02:56:34.638Z,42.40
2019-02-14T02:59:06.941Z,41.90
2019-02-14T03:01:39.100Z,41.50
2019-02-14T03:04:11.563Z,41.10
2019-02-14T03:06:44.052Z,42.50
2019-02-14T03:09:16.571Z,43.40
2019-02-14T03:11:48.837Z,44.60
2019-02-14T03:14:21.245Z,46.20
2019-02-14T03:16:54.038Z,46.60
2019-02-14T03:19:26.264Z,47.20
2019-02-14T03:21:59.605Z,47.80
2019-02-14T03:24:32.064Z,47.90
2019-02-14T03:27:04.466Z,47.60
2019-02-14T03:29:36.773Z,48.90
2019-02-14T03:32:09.001Z,48.80
2019-02-14T03:34:41.485Z,49.20
2019-02-14T03:37:13.776Z,49.10
2019-02-14T03:39:46.006Z,49.20
2019-02-14T03:42:18.289Z,49.70
2019-02-14T03:44:51.023Z,49.90
2019-02-14T03:47:23.196Z,50.30
2019-02-14T03:49:55.407Z,50.50
2019-02-14T03:52:27.620Z,50.90
2019-02-14T03:55:00.331Z,51.30
2019-02-14T03:57:32.967Z,51.40
2019-02-14T04:00:06.718Z,51.50
2019-02-14T04:02:39.425Z,51.40
2019-02-14T04:05:12.268Z,51.70
2019-02-14T04:07:44.448Z,52.00
2019-02-14T04:10:16.946Z,51.60
2019-02-14T04:12:49.228Z,51.70
2019-02-14T04:15:21.646Z,51.70
2019-02-14T04:17:53.938Z,51.80
2019-02-14T04:20:26.232Z,51.90
2019-02-14T04:22:58.588Z,51.80
2019-02-14T04:25:31.128Z,52.00
2019-02-14T04:28:03.338Z,52.00
2019-02-14T04:30:35.721Z,52.00
2019-02-14T04:33:08.892Z,52.00
2019-02-14T04:35:41.374Z,52.20
2019-02-14T04:38:13.538Z,52.00
2019-02-14T04:40:45.748Z,51.90
2019-02-14T04:43:17.982Z,51.90
2019-02-14T04:45:50.664Z,51.80
2019-02-14T04:48:22.838Z,51.90
2019-02-14T04:50:55.055Z,51.90
2019-02-14T04:53:27.239Z,51.90
2019-02-14T04:55:59.435Z,51.90
2019-02-14T04:58:31.903Z,51.90
2019-02-14T05:01:04.111Z,52.00
2019-02-14T05:03:37.435Z,52.10
2019-02-14T05:06:09.827Z,52.10
2019-02-14T05:08:42.109Z,52.00
2019-02-14T05:11:14.343Z,52.30
2019-02-14T05:13:46.532Z,52.10
2019-02-14T05:16:18.781Z,52.20
2019-02-14T05:18:50.973Z,52.10
2019-02-14T05:21:23.277Z,52.20
2019-02-14T05:23:55.812Z,52.20
2019-02-14T05:26:28.010Z,52.20
2019-02-14T05:29:00.287Z,52.10
2019-02-14T05:31:32.511Z,52.10
2019-02-14T05:34:04.713Z,52.30
2019-02-14T05:36:37.138Z,52.40
2019-02-14T05:39:09.440Z,52.30
2019-02-14T05:41:41.689Z,52.30
2019-02-14T05:44:13.900Z,52.30
2019-02-14T05:46:46.649Z,52.40
2019-02-14T05:49:18.800Z,52.40
2019-02-14T05:51:51.024Z,52.40
2019-02-14T05:54:23.199Z,52.50
2019-02-14T05:56:55.421Z,52.50
2019-02-14T05:59:27.594Z,52.60
2019-02-14T06:01:59.913Z,52.60
2019-02-14T06:04:32.226Z,52.60
2019-02-14T06:07:04.809Z,52.60
2019-02-14T06:09:36.969Z,52.70
2019-02-14T06:12:09.386Z,52.70
2019-02-14T06:14:41.557Z,52.70
2019-02-14T06:17:13.875Z,53.40
2019-02-14T06:19:46.065Z,53.20
2019-02-14T06:22:18.497Z,53.40
2019-02-14T06:24:51.257Z,53.30
2019-02-14T06:27:23.450Z,53.40
2019-02-14T06:29:55.646Z,53.50
2019-02-14T06:32:28.058Z,53.40
2019-02-14T06:35:00.343Z,53.90
2019-02-14T06:37:32.718Z,54.10
2019-02-14T06:40:05.572Z,54.20
2019-02-14T06:42:37.775Z,54.20
2019-02-14T06:45:15.408Z,54.20
2019-02-14T06:47:48.059Z,54.20
2019-02-14T06:50:20.233Z,54.20
2019-02-14T06:52:52.528Z,54.00
2019-02-14T06:55:24.794Z,53.90
2019-02-14T06:57:57.088Z,54.00
2019-02-14T07:00:29.372Z,54.00
2019-02-14T07:03:01.671Z,54.10
2019-02-14T07:05:33.937Z,54.00
2019-02-14T07:08:06.440Z,54.10
2019-02-14T07:10:39.220Z,53.90
2019-02-14T07:13:12.707Z,53.80
2019-02-14T07:15:45.192Z,53.80
2019-02-14T07:18:17.685Z,53.70
2019-02-14T07:20:49.955Z,53.50
2019-02-14T07:23:22.429Z,53.50
2019-02-14T07:25:54.989Z,53.50
2019-02-14T07:28:27.259Z,53.40
2019-02-14T07:30:59.658Z,53.50
2019-02-14T07:33:32.039Z,53.40
2019-02-14T07:36:04.248Z,53.40
2019-02-14T07:38:36.689Z,53.50
2019-02-14T07:41:09.239Z,53.20
2019-02-14T07:43:41.472Z,53.10
2019-02-14T07:46:13.673Z,53.00
2019-02-14T07:48:46.701Z,53.20
2019-02-14T07:51:19.264Z,52.90
2019-02-14T07:53:51.501Z,53.00
2019-02-14T07:56:24.237Z,52.80
2019-02-14T07:58:57.122Z,52.80
2019-02-14T08:01:29.728Z,52.70
2019-02-14T08:04:01.951Z,52.60
2019-02-14T08:06:34.137Z,52.80
2019-02-14T08:09:07.535Z,52.60
2019-02-14T08:11:39.905Z,52.50
2019-02-14T08:14:12.096Z,52.90
2019-02-14T08:16:44.404Z,52.40
2019-02-14T08:19:17.638Z,52.40
2019-02-14T08:21:49.831Z,52.10
2019-02-14T08:24:22.077Z,52.00
2019-02-14T08:26:55.726Z,52.00
2019-02-14T08:29:28.464Z,52.00
2019-02-14T08:32:00.786Z,52.00
2019-02-14T08:34:33.618Z,51.90
2019-02-14T08:37:05.807Z,51.80
2019-02-14T08:39:38.202Z,51.70
2019-02-14T08:42:10.413Z,51.80
2019-02-14T08:44:42.616Z,51.60
2019-02-14T08:47:14.804Z,51.60
2019-02-14T08:49:47.713Z,51.60
2019-02-14T08:52:20.116Z,51.70
2019-02-14T08:54:52.368Z,51.70
2019-02-14T08:57:24.588Z,51.80
2019-02-14T08:59:57.015Z,51.90
2019-02-14T09:02:29.258Z,52.10
2019-02-14T09:05:01.435Z,52.20
2019-02-14T09:07:33.854Z,52.20
2019-02-14T09:10:09.136Z,52.20
2019-02-14T09:12:41.328Z,52.20
2019-02-14T09:15:15.473Z,52.20
2019-02-14T09:17:47.869Z,52.40
2019-02-14T09:20:23.865Z,52.30
2019-02-14T09:22:56.411Z,52.20
2019-02-14T09:25:29.636Z,51.80
2019-02-14T09:28:02.254Z,52.30
2019-02-14T09:30:34.835Z,52.60
2019-02-14T09:33:07.173Z,52.50
2019-02-14T09:35:39.771Z,52.80
2019-02-14T09:38:12.290Z,52.90
2019-02-14T09:40:44.829Z,52.80
2019-02-14T09:43:17.345Z,52.80
2019-02-14T09:45:49.694Z,52.60
2019-02-14T09:48:22.302Z,52.70
2019-02-14T09:50:54.705Z,52.80
2019-02-14T09:53:27.012Z,53.00
2019-02-14T09:55:59.242Z,52.80
2019-02-14T09:58:32.549Z,53.10
2019-02-14T10:01:04.784Z,52.90
2019-02-14T10:03:37.330Z,53.00
2019-02-14T10:06:09.690Z,53.00
2019-02-14T10:08:41.943Z,52.90
2019-02-14T10:11:14.387Z,53.10
2019-02-14T10:13:46.677Z,53.20
2019-02-14T10:16:18.885Z,52.80
2019-02-14T10:18:51.541Z,53.10
2019-02-14T10:21:24.295Z,53.00
2019-02-14T10:23:56.849Z,53.20
2019-02-14T10:26:29.193Z,53.20
2019-02-14T10:29:02.320Z,53.30
2019-02-14T10:31:34.753Z,53.20
2019-02-14T10:34:06.990Z,53.40
2019-02-14T10:36:39.249Z,53.20
2019-02-14T10:39:11.561Z,53.40
2019-02-14T10:41:44.449Z,53.30
2019-02-14T10:44:16.675Z,53.40
2019-02-14T10:46:48.975Z,53.40
2019-02-14T10:49:21.307Z,53.60
2019-02-14T10:51:54.095Z,53.40
2019-02-14T10:54:26.411Z,53.50
2019-02-14T10:56:58.716Z,53.50
2019-02-14T10:59:31.902Z,53.40
2019-02-14T11:02:04.739Z,53.60
2019-02-14T11:04:36.962Z,53.60
2019-02-14T11:07:09.180Z,53.50
2019-02-14T11:09:41.381Z,53.60
2019-02-14T11:12:14.094Z,53.40
2019-02-14T11:14:46.481Z,53.60
2019-02-14T11:17:18.715Z,53.70
2019-02-14T11:19:50.895Z,53.70
2019-02-14T11:22:23.379Z,53.70
2019-02-14T11:24:55.573Z,53.60
2019-02-14T11:27:27.784Z,54.40
2019-02-14T11:30:00.654Z,52.80
2019-02-14T11:32:33.142Z,51.00
2019-02-14T11:35:06.124Z,49.70
2019-02-14T11:37:38.602Z,48.30
2019-02-14T11:40:13.230Z,49.20
2019-02-14T11:42:45.798Z,50.20
2019-02-14T11:45:20.860Z,51.00
2019-02-14T11:47:53.457Z,51.10
2019-02-14T11:50:25.824Z,51.50
2019-02-14T11:52:58.405Z,51.60
2019-02-14T11:55:30.810Z,51.70
2019-02-14T11:58:03.396Z,51.90
2019-02-14T12:00:35.960Z,52.00
2019-02-14T12:03:09.576Z,52.20
2019-02-14T12:05:41.979Z,52.20
2019-02-14T12:08:14.759Z,52.40
2019-02-14T12:10:47.129Z,52.60
2019-02-14T12:13:19.707Z,52.60
2019-02-14T12:15:52.371Z,52.80
2019-02-14T12:18:24.782Z,52.80
2019-02-14T12:20:57.126Z,52.90
2019-02-14T12:23:29.519Z,53.00
2019-02-14T12:26:01.876Z,53.10
2019-02-14T12:28:34.267Z,53.20
2019-02-14T12:31:06.915Z,53.30
2019-02-14T12:33:39.317Z,53.30
2019-02-14T12:36:11.695Z,53.40
2019-02-14T12:38:44.188Z,53.50
2019-02-14T12:41:16.645Z,53.50
2019-02-14T12:43:49.030Z,53.60
2019-02-14T12:46:21.601Z,53.60
2019-02-14T12:48:54.457Z,53.60
2019-02-14T12:51:26.959Z,53.60
2019-02-14T12:53:59.881Z,53.60
2019-02-14T12:56:32.901Z,53.60
2019-02-14T12:59:05.578Z,53.50
2019-02-14T13:01:38.279Z,53.60
2019-02-14T13:04:10.784Z,53.70
2019-02-14T13:06:43.384Z,53.70
2019-02-14T13:09:20.055Z,53.70
2019-02-14T13:11:50.070Z,53.70
2019-02-14T13:14:22.423Z,53.70
2019-02-14T13:16:54.998Z,53.70
2019-02-14T13:19:27.363Z,53.60
2019-02-14T13:21:59.764Z,53.70
2019-02-14T13:24:32.309Z,53.80
2019-02-14T13:27:04.974Z,53.70
2019-02-14T13:29:37.440Z,53.70
2019-02-14T13:32:10.132Z,53.60
2019-02-14T13:34:42.602Z,54.60
2019-02-14T13:37:15.083Z,52.80
2019-02-14T13:39:47.774Z,51.00
2019-02-14T13:42:20.137Z,49.50
2019-02-14T13:44:52.494Z,49.70
2019-02-14T13:47:27.095Z,50.80
2019-02-14T13:49:58.989Z,51.60
2019-02-14T13:52:31.495Z,52.10
2019-02-14T13:55:04.266Z,51.90
2019-02-14T13:57:38.013Z,52.10
2019-02-14T14:00:15.657Z,52.40
2019-02-14T14:02:48.042Z,52.60
2019-02-14T14:05:20.503Z,53.60
2019-02-14T14:07:53.085Z,51.70
2019-02-14T14:10:25.545Z,49.80
2019-02-14T14:12:58.481Z,48.30
2019-02-14T14:15:31.062Z,47.20
2019-02-14T14:18:03.644Z,46.30
2019-02-14T14:20:36.033Z,45.40
2019-02-14T14:23:08.776Z,46.10
2019-02-14T14:25:41.118Z,47.60
2019-02-14T14:28:13.705Z,48.50
2019-02-14T14:30:46.078Z,49.30
2019-02-14T14:33:18.665Z,49.70
2019-02-14T14:35:51.019Z,50.00
2019-02-14T14:38:23.406Z,50.40
2019-02-14T14:40:56.335Z,50.80
2019-02-14T14:43:30.077Z,51.00
2019-02-14T14:46:04.121Z,51.20
2019-02-14T14:48:38.472Z,51.50
2019-02-14T14:51:10.902Z,51.70
2019-02-14T14:53:43.317Z,51.80
2019-02-14T14:56:15.830Z,49.90
2019-02-14T14:58:48.232Z,48.30
2019-02-14T15:01:20.611Z,47.20
2019-02-14T15:03:53.026Z,46.00
2019-02-14T15:06:25.456Z,45.30
2019-02-14T15:08:57.934Z,44.60
2019-02-14T15:11:30.338Z,44.50
2019-02-14T15:14:02.834Z,45.10
2019-02-14T15:16:36.408Z,46.80
2019-02-14T15:19:08.746Z,48.70
2019-02-14T15:21:41.164Z,49.30
2019-02-14T15:24:13.390Z,50.00
2019-02-14T15:26:45.574Z,50.50
2019-02-14T15:29:17.799Z,51.50
2019-02-14T15:31:50.437Z,52.30
2019-02-14T15:34:23.750Z,53.20
2019-02-14T15:36:56.020Z,53.70
2019-02-14T15:39:28.671Z,54.20
2019-02-14T15:42:01.330Z,55.10
2019-02-14T15:44:34.027Z,55.30
2019-02-14T15:47:06.579Z,55.40
2019-02-14T15:49:39.130Z,55.60
2019-02-14T15:52:11.532Z,56.00
2019-02-14T15:54:43.726Z,55.90
2019-02-14T15:57:18.214Z,55.90
2019-02-14T15:59:49.987Z,55.70
2019-02-14T16:02:23.456Z,56.50
2019-02-14T16:04:55.661Z,55.80
2019-02-14T16:07:28.157Z,55.70
2019-02-14T16:10:03.047Z,55.70
2019-02-14T16:12:35.802Z,56.00
2019-02-14T16:15:09.781Z,56.10
2019-02-14T16:17:42.576Z,56.10
2019-02-14T16:20:17.518Z,56.80
2019-02-14T16:22:49.338Z,56.40
2019-02-14T16:25:21.557Z,56.40
2019-02-14T16:27:53.897Z,56.40
2019-02-14T16:30:26.229Z,56.40
2019-02-14T16:32:58.649Z,56.70
2019-02-14T16:35:32.234Z,56.60
2019-02-14T16:38:04.640Z,56.90
2019-02-14T16:40:38.829Z,56.80
2019-02-14T16:43:11.259Z,56.90
2019-02-14T16:45:43.611Z,57.10
2019-02-14T16:48:17.378Z,57.00
2019-02-14T16:50:50.260Z,57.20
2019-02-14T16:53:22.481Z,57.30
2019-02-14T16:56:01.927Z,57.30
2019-02-14T16:58:28.787Z,57.40
2019-02-14T17:01:01.142Z,57.20
2019-02-14T17:03:33.551Z,57.30
2019-02-14T17:06:06.001Z,57.20
2019-02-14T17:08:38.205Z,57.30
2019-02-14T17:11:10.452Z,57.20
2019-02-14T17:13:42.671Z,57.20
2019-02-14T17:16:14.944Z,57.10
2019-02-14T17:18:47.154Z,57.10
2019-02-14T17:21:19.574Z,56.90
2019-02-14T17:23:51.873Z,57.10
2019-02-14T17:26:24.127Z,57.00
2019-02-14T17:28:56.321Z,56.90
2019-02-14T17:31:28.587Z,56.90
2019-02-14T17:34:00.778Z,57.00
2019-02-14T17:36:34.217Z,56.90
2019-02-14T17:39:08.019Z,56.90
2019-02-14T17:41:40.781Z,56.90
2019-02-14T17:44:13.088Z,56.70
2019-02-14T17:46:45.792Z,56.80
2019-02-14T17:49:17.993Z,56.80
2019-02-14T17:51:50.552Z,56.70
2019-02-14T17:54:22.786Z,56.70
2019-02-14T17:56:55.023Z,56.70
2019-02-14T17:59:27.414Z,56.70
2019-02-14T18:01:59.657Z,56.70
2019-02-14T18:04:31.859Z,56.70
2019-02-14T18:07:04.150Z,56.60
2019-02-14T18:09:36.922Z,56.60
2019-02-14T18:12:09.564Z,56.60
2019-02-14T18:14:41.743Z,56.50
2019-02-14T18:17:14.093Z,56.40
2019-02-14T18:19:46.624Z,56.30
2019-02-14T18:22:19.026Z,56.50
2019-02-14T18:24:51.833Z,56.30
2019-02-14T18:27:24.291Z,56.30
2019-02-14T18:29:56.599Z,56.20
2019-02-14T18:32:29.270Z,56.10
2019-02-14T18:35:01.533Z,56.10
2019-02-14T18:37:34.029Z,56.20
2019-02-14T18:40:08.754Z,56.20
2019-02-14T18:42:48.842Z,56.10
2019-02-14T18:45:21.064Z,56.10
2019-02-14T18:47:53.722Z,56.10
2019-02-14T18:50:25.999Z,56.10
2019-02-14T18:52:58.504Z,56.00
2019-02-14T18:55:30.728Z,56.00
2019-02-14T18:58:03.069Z,56.10
2019-02-14T19:00:35.988Z,55.90
2019-02-14T19:03:08.220Z,55.90
2019-02-14T19:05:40.625Z,55.90
2019-02-14T19:08:12.930Z,55.80
2019-02-14T19:10:45.830Z,55.90
2019-02-14T19:13:18.989Z,55.90
2019-02-14T19:15:51.884Z,55.90
2019-02-14T19:18:24.608Z,55.90
2019-02-14T19:20:56.913Z,55.90
2019-02-14T19:23:29.911Z,55.90
2019-02-14T19:26:02.324Z,55.90
2019-02-14T19:28:34.639Z,55.90
2019-02-14T19:31:06.858Z,55.80
2019-02-14T19:33:39.627Z,55.80
2019-02-14T19:36:12.306Z,55.90
2019-02-14T19:38:44.943Z,55.90
2019-02-14T19:41:25.082Z,55.80
2019-02-14T19:43:51.087Z,55.70
2019-02-14T19:46:23.710Z,55.70
2019-02-14T19:48:56.046Z,55.60
2019-02-14T19:51:28.243Z,55.50
2019-02-14T19:54:00.728Z,55.50
2019-02-14T19:56:33.055Z,55.50
2019-02-14T19:59:05.745Z,55.50
2019-02-14T20:01:39.124Z,55.50
2019-02-14T20:04:11.756Z,55.50
2019-02-14T20:06:44.157Z,55.40
2019-02-14T20:09:16.783Z,55.40
2019-02-14T20:11:48.983Z,55.40
2019-02-14T20:14:21.386Z,55.40
2019-02-14T20:16:53.568Z,55.40
2019-02-14T20:19:25.785Z,55.30
2019-02-14T20:21:58.428Z,55.30
2019-02-14T20:24:31.998Z,55.30
2019-02-14T20:27:04.197Z,55.90
2019-02-14T20:29:37.099Z,55.20
2019-02-14T20:32:09.623Z,55.20
2019-02-14T20:34:41.843Z,55.20
2019-02-14T20:37:14.028Z,55.20
2019-02-14T20:39:46.505Z,55.20
2019-02-14T20:42:19.141Z,55.20
2019-02-14T20:44:52.099Z,55.10
2019-02-14T20:47:24.500Z,55.10
2019-02-14T20:49:56.836Z,55.10
2019-02-14T20:52:29.140Z,55.10
2019-02-14T20:55:01.764Z,55.10
2019-02-14T20:57:34.165Z,55.20
2019-02-14T21:00:10.529Z,55.10
2019-02-14T21:02:43.028Z,55.10
2019-02-14T21:05:15.351Z,54.90
2019-02-14T21:07:47.751Z,54.90
2019-02-14T21:10:20.441Z,55.10
2019-02-14T21:12:52.827Z,55.20
2019-02-14T21:15:25.238Z,55.20
2019-02-14T21:17:57.520Z,55.10
2019-02-14T21:20:30.124Z,55.20
2019-02-14T21:23:02.569Z,55.30
2019-02-14T21:25:35.161Z,55.40
2019-02-14T21:28:07.530Z,55.30
2019-02-14T21:30:40.168Z,55.30
2019-02-14T21:33:12.885Z,55.40
2019-02-14T21:35:45.402Z,55.40
2019-02-14T21:38:18.066Z,55.40
2019-02-14T21:40:50.467Z,55.40
2019-02-14T21:43:22.840Z,55.40
2019-02-14T21:45:55.256Z,55.40
2019-02-14T21:48:27.820Z,55.40
2019-02-14T21:51:01.337Z,55.40
2019-02-14T21:53:33.932Z,55.40
2019-02-14T21:56:06.694Z,55.40
2019-02-14T21:58:39.364Z,55.30
2019-02-14T22:01:13.208Z,55.30
2019-02-14T22:03:46.006Z,55.40
2019-02-14T22:06:18.517Z,55.50
2019-02-14T22:08:51.285Z,55.50
2019-02-14T22:11:24.200Z,55.50
2019-02-14T22:13:56.772Z,55.40
2019-02-14T22:16:29.258Z,55.50
2019-02-14T22:19:01.743Z,55.40
2019-02-14T22:21:34.140Z,55.50
2019-02-14T22:24:06.968Z,55.50
2019-02-14T22:26:39.558Z,55.60
2019-02-14T22:29:12.014Z,55.50
2019-02-14T22:31:44.432Z,55.40
2019-02-14T22:34:16.979Z,55.50
2019-02-14T22:36:49.392Z,55.50
2019-02-14T22:39:21.980Z,55.40
2019-02-14T22:41:54.407Z,55.30
2019-02-14T22:44:27.195Z,55.40
2019-02-14T22:46:59.597Z,55.40
2019-02-14T22:49:31.950Z,55.30
2019-02-14T22:52:04.567Z,55.30
2019-02-14T22:54:36.943Z,55.30
2019-02-14T22:57:09.493Z,55.30
2019-02-14T22:59:41.988Z,55.30
2019-02-14T23:02:14.653Z,55.30
2019-02-14T23:04:47.381Z,55.30
2019-02-14T23:07:19.899Z,55.30
2019-02-14T23:09:52.274Z,55.30
2019-02-14T23:12:25.045Z,55.30
2019-02-14T23:14:57.510Z,55.40
2019-02-14T23:17:30.221Z,55.40
2019-02-14T23:20:02.926Z,55.30
2019-02-14T23:22:36.187Z,55.90
2019-02-14T23:25:09.373Z,55.30
2019-02-14T23:27:42.195Z,55.50
2019-02-14T23:30:15.090Z,55.40
2019-02-14T23:32:47.476Z,55.40
2019-02-14T23:35:19.963Z,55.40
2019-02-14T23:37:52.431Z,55.40
2019-02-14T23:40:24.809Z,55.40
2019-02-14T23:43:04.316Z,55.50
2019-02-14T23:45:31.357Z,55.50
2019-02-14T23:48:03.832Z,55.40
2019-02-14T23:50:36.240Z,55.40
2019-02-14T23:53:09.129Z,55.50
2019-02-14T23:55:41.506Z,55.40
2019-02-14T23:58:14.185Z,55.40
